Time;durP1;ratioP1;P1;durP2;ratioP2;P2;SDS_P1;SDS_P2;PMS_P1;PMS_P2;Temp;Humidity;BMP_temperature;BMP_pressure;BME280_temperature;BME280_humidity;BME280_pressure;Samples;Min_cycle;Max_cycle;Signal;HPM_P1;HPM_P2
2021/06/30 00:02:23;;;;;;;5.55;1.23;;;;;;;17.82;68.13;97877.97;5086276;28;20032;-75
2021/06/30 00:04:48;;;;;;;4.28;1.27;;;;;;;17.67;69.23;97923.97;5085695;28;20114;-75
2021/06/30 00:07:15;;;;;;;6.28;1.92;;;;;;;17.60;70.16;97953.47;5067385;28;20115;-75
2021/06/30 00:09:41;;;;;;;6.10;1.10;;;;;;;17.53;70.71;97942.97;5085253;28;20087;-75
2021/06/30 00:12:07;;;;;;;6.10;1.30;;;;;;;17.51;70.46;97915.63;5091619;28;20032;-74
2021/06/30 00:14:33;;;;;;;7.22;1.42;;;;;;;17.51;71.77;97889.88;5092145;28;20024;-76
2021/06/30 00:16:59;;;;;;;7.75;1.75;;;;;;;17.51;71.53;97876.03;5080714;28;20040;-76
2021/06/30 00:19:29;;;;;;;8.23;1.50;;;;;;;17.54;72.25;97880.81;5076453;28;20049;-75
2021/06/30 00:21:56;;;;;;;8.63;1.13;;;;;;;17.54;72.42;97884.41;5087510;28;20060;-75
2021/06/30 00:24:21;;;;;;;6.10;1.30;;;;;;;17.56;73.37;97884.06;5085733;28;20118;-77
2021/06/30 00:26:47;;;;;;;3.72;1.15;;;;;;;17.59;72.30;97880.56;5085924;28;20405;-75
2021/06/30 00:29:12;;;;;;;4.47;0.98;;;;;;;17.63;74.15;97833.53;5085776;28;20142;-76
2021/06/30 00:31:38;;;;;;;5.18;1.23;;;;;;;17.61;72.52;97774.88;5085367;28;20016;-77
2021/06/30 00:34:04;;;;;;;7.82;1.40;;;;;;;17.66;72.39;97771.81;5084870;28;20027;-77
2021/06/30 00:36:35;;;;;;;5.93;1.20;;;;;;;17.63;72.08;97734.50;5082878;28;20248;-77
2021/06/30 00:39:04;;;;;;;2.67;1.20;;;;;;;17.66;72.17;97731.00;5075802;28;20127;-75
2021/06/30 00:41:29;;;;;;;4.10;1.30;;;;;;;17.68;72.27;97720.38;5085944;28;20047;-75
2021/06/30 00:43:55;;;;;;;3.20;1.50;;;;;;;17.78;72.21;97727.31;5104047;28;20028;-74
2021/06/30 00:46:25;;;;;;;3.90;1.30;;;;;;;17.83;71.53;97712.38;5105064;28;20578;-75
2021/06/30 00:48:51;;;;;;;6.03;1.90;;;;;;;17.82;72.41;97667.19;5104627;28;20055;-75
2021/06/30 00:51:16;;;;;;;3.65;1.67;;;;;;;17.84;71.77;97700.09;5093247;28;20150;-75
2021/06/30 00:53:41;;;;;;;7.05;1.80;;;;;;;17.78;71.37;97713.44;5084813;28;20400;-74
2021/06/30 00:56:06;;;;;;;6.03;1.75;;;;;;;17.77;71.43;97711.03;5084761;28;20464;-75
2021/06/30 00:58:35;;;;;;;6.13;1.63;;;;;;;17.80;71.35;97696.44;5081168;28;20039;-75
2021/06/30 01:01:00;;;;;;;7.18;2.10;;;;;;;17.85;71.58;97688.63;5075754;28;20070;-75
2021/06/30 01:03:26;;;;;;;6.00;1.88;;;;;;;17.92;71.22;97676.09;5079492;28;20122;-75
2021/06/30 01:05:51;;;;;;;3.53;1.70;;;;;;;17.94;71.14;97696.75;5084890;28;20036;-75
2021/06/30 01:08:16;;;;;;;4.90;1.60;;;;;;;17.95;71.05;97656.72;5066800;28;20087;-75
2021/06/30 01:10:42;;;;;;;4.30;1.80;;;;;;;18.00;71.06;97639.81;5082297;28;20024;-75
2021/06/30 01:13:07;;;;;;;8.20;2.20;;;;;;;18.00;70.77;97644.59;5085160;28;20091;-75
2021/06/30 01:15:45;;;;;;;4.40;1.98;;;;;;;18.02;70.98;97650.56;5085340;28;20059;-75
2021/06/30 01:18:10;;;;;;;4.80;2.22;;;;;;;18.04;71.92;97670.44;5086180;28;20012;-74
2021/06/30 01:20:35;;;;;;;10.05;2.28;;;;;;;18.01;71.39;97662.84;5075460;28;20015;-74
2021/06/30 01:23:09;;;;;;;4.13;2.20;;;;;;;17.98;71.23;97656.00;5074402;28;20710;-74
2021/06/30 01:25:35;;;;;;;4.32;2.10;;;;;;;17.97;71.02;97643.31;5080877;28;20020;-74
2021/06/30 01:28:01;;;;;;;5.15;2.33;;;;;;;17.95;70.94;97650.41;5084383;28;20024;-75
2021/06/30 01:30:27;;;;;;;6.88;2.65;;;;;;;17.95;71.13;97634.53;5084023;28;20483;-74
2021/06/30 01:32:52;;;;;;;6.90;2.05;;;;;;;17.96;71.06;97625.06;5084780;28;20028;-76
2021/06/30 01:35:23;;;;;;;3.83;2.10;;;;;;;17.99;71.06;97632.69;5083853;28;20591;-74
2021/06/30 01:37:49;;;;;;;7.75;2.88;;;;;;;18.00;71.02;97639.81;5084418;28;20038;-75
2021/06/30 01:40:15;;;;;;;5.80;2.53;;;;;;;18.02;71.28;97655.31;5079815;28;20028;-74
2021/06/30 01:42:45;;;;;;;6.70;2.92;;;;;;;18.01;71.27;97660.06;5075230;28;20113;-75
2021/06/30 01:45:11;;;;;;;10.23;3.05;;;;;;;17.99;71.07;97656.84;5077203;28;20050;-74
2021/06/30 01:47:36;;;;;;;9.10;3.50;;;;;;;17.94;71.23;97635.72;5084209;28;21299;-74
2021/06/30 01:50:02;;;;;;;5.03;2.38;;;;;;;17.93;71.20;97627.75;5084567;28;20562;-74
2021/06/30 01:52:29;;;;;;;6.30;2.90;;;;;;;17.88;71.35;97619.72;5081707;28;20035;-75
2021/06/30 01:54:55;;;;;;;8.45;3.20;;;;;;;17.83;71.46;97629.94;5085218;28;20024;-75
2021/06/30 01:57:21;;;;;;;8.02;2.95;;;;;;;17.81;71.55;97626.75;5085113;28;20139;-74
2021/06/30 01:59:46;;;;;;;6.65;2.50;;;;;;;17.79;71.92;97615.22;5084305;28;20396;-74
2021/06/30 02:02:11;;;;;;;8.27;2.83;;;;;;;17.77;71.40;97612.00;5079090;28;20020;-73
2021/06/30 02:04:39;;;;;;;8.57;2.97;;;;;;;17.76;71.55;97607.63;5075275;28;20348;-74
2021/06/30 02:07:05;;;;;;;5.35;2.90;;;;;;;17.73;72.05;97616.66;5082221;28;20061;-74
2021/06/30 02:09:31;;;;;;;6.35;2.85;;;;;;;17.69;71.43;97613.03;5083927;28;20123;-75
2021/06/30 02:11:58;;;;;;;9.02;3.05;;;;;;;17.67;71.83;97618.16;5082044;28;20122;-75
2021/06/30 02:14:23;;;;;;;8.27;3.15;;;;;;;17.64;72.09;97619.66;5084459;28;20131;-73
2021/06/30 02:16:49;;;;;;;5.88;2.70;;;;;;;17.62;71.63;97613.69;5084552;28;20432;-74
2021/06/30 02:19:14;;;;;;;7.18;2.90;;;;;;;17.60;71.79;97616.00;5084354;28;20039;-74
2021/06/30 02:21:40;;;;;;;6.68;3.40;;;;;;;17.60;72.14;97618.00;5083411;28;20032;-73
2021/06/30 02:24:06;;;;;;;9.50;3.42;;;;;;;17.56;72.69;97610.41;5075263;28;20822;-74
2021/06/30 02:26:34;;;;;;;10.40;4.53;;;;;;;17.53;72.71;97608.34;5057344;28;20028;-74
2021/06/30 02:28:59;;;;;;;12.13;5.03;;;;;;;17.48;72.51;97600.31;5082767;28;20016;-73
2021/06/30 02:31:25;;;;;;;10.68;4.55;;;;;;;17.41;72.67;97612.06;5086766;28;20031;-72
2021/06/30 02:33:52;;;;;;;9.38;3.38;;;;;;;17.39;72.74;97619.94;5084598;28;20017;-72
2021/06/30 02:36:18;;;;;;;12.32;4.57;;;;;;;17.33;73.48;97629.69;5084532;28;20030;-72
2021/06/30 02:38:44;;;;;;;10.68;4.38;;;;;;;17.31;73.07;97631.22;5086886;28;20023;-72
2021/06/30 02:41:09;;;;;;;9.68;4.13;;;;;;;17.29;73.08;97628.03;5087647;28;20024;-74
2021/06/30 02:43:35;;;;;;;6.72;3.80;;;;;;;17.31;73.35;97631.22;5082712;28;20609;-75
2021/06/30 02:46:02;;;;;;;5.93;3.63;;;;;;;17.33;74.02;97639.97;5060477;28;20089;-76
2021/06/30 02:48:28;;;;;;;10.38;4.25;;;;;;;17.31;73.22;97642.31;5080113;28;20072;-76
2021/06/30 02:50:53;;;;;;;9.73;4.10;;;;;;;17.33;73.39;97634.41;5085126;28;20020;-76
2021/06/30 02:53:19;;;;;;;5.80;3.35;;;;;;;17.36;72.92;97639.25;5087096;28;20024;-76
2021/06/30 02:55:44;;;;;;;9.10;4.18;;;;;;;17.36;73.16;97640.06;5086494;28;20059;-76
2021/06/30 02:58:10;;;;;;;6.53;4.07;;;;;;;17.38;72.93;97642.47;5086214;28;20141;-75
2021/06/30 03:00:35;;;;;;;7.40;3.55;;;;;;;17.40;73.13;97656.75;5086020;28;20027;-76
2021/06/30 03:03:00;;;;;;;7.45;4.32;;;;;;;17.39;72.95;97658.75;5085834;28;20036;-75
2021/06/30 03:05:26;;;;;;;5.20;3.20;;;;;;;17.37;73.11;97669.38;5077882;28;20028;-75
2021/06/30 03:07:51;;;;;;;5.93;3.15;;;;;;;17.31;73.16;97658.94;5077679;28;20085;-75
2021/06/30 03:10:18;;;;;;;5.22;2.40;;;;;;;17.26;73.55;97676.63;5080721;28;20072;-75
2021/06/30 03:12:44;;;;;;;8.00;3.83;;;;;;;17.21;74.25;97666.66;5089809;28;20024;-75
2021/06/30 03:15:10;;;;;;;10.40;4.32;;;;;;;17.19;74.26;97680.06;5087680;28;20027;-75
2021/06/30 03:17:37;;;;;;;8.70;3.38;;;;;;;17.23;74.19;97674.59;5087660;28;20054;-75
2021/06/30 03:20:05;;;;;;;11.68;4.15;;;;;;;17.23;74.71;97675.41;5070028;28;20020;-74
2021/06/30 03:22:31;;;;;;;8.47;3.60;;;;;;;17.24;74.36;97678.97;5088561;28;20367;-75
2021/06/30 03:24:58;;;;;;;6.20;3.22;;;;;;;17.28;74.45;97687.38;5084732;28;20028;-74
2021/06/30 03:27:23;;;;;;;5.63;3.25;;;;;;;17.26;74.73;97696.84;5080668;28;20465;-74
2021/06/30 03:29:49;;;;;;;6.65;3.00;;;;;;;17.27;74.81;97692.09;5080573;28;20024;-74
2021/06/30 03:32:14;;;;;;;4.57;2.53;;;;;;;17.26;74.98;97699.63;5085598;28;20100;-75
2021/06/30 03:34:40;;;;;;;4.82;2.72;;;;;;;17.26;74.25;97702.41;5088075;28;20465;-75
2021/06/30 03:37:05;;;;;;;10.30;5.38;;;;;;;17.25;75.05;97698.03;5087316;28;20024;-75
2021/06/30 03:39:30;;;;;;;5.93;2.97;;;;;;;17.22;75.38;97701.50;5086529;28;20020;-74
2021/06/30 03:41:56;;;;;;;6.32;3.22;;;;;;;17.24;75.42;97703.91;5087313;28;20059;-74
2021/06/30 03:44:21;;;;;;;6.45;2.15;;;;;;;17.22;75.50;97700.69;5086854;28;20433;-75
2021/06/30 03:46:51;;;;;;;5.35;2.53;;;;;;;17.20;75.19;97706.59;5082185;28;20020;-74
2021/06/30 03:49:17;;;;;;;5.88;2.40;;;;;;;17.19;75.14;97718.84;5076794;28;20020;-74
2021/06/30 03:51:42;;;;;;;5.63;2.00;;;;;;;17.18;74.87;97725.56;5080894;28;20042;-76
2021/06/30 03:54:09;;;;;;;5.30;2.20;;;;;;;17.17;74.88;97726.72;5086788;28;20024;-75
2021/06/30 03:56:35;;;;;;;5.78;2.20;;;;;;;17.14;75.21;97738.50;5086984;28;20028;-76
2021/06/30 03:59:00;;;;;;;6.63;2.25;;;;;;;17.11;74.68;97739.22;5085899;28;20030;-75
2021/06/30 04:01:26;;;;;;;3.47;1.95;;;;;;;17.13;74.85;97749.94;5086169;28;20024;-74
2021/06/30 04:04:01;;;;;;;6.18;2.20;;;;;;;17.12;74.90;97751.91;5086665;28;20024;-75
2021/06/30 04:06:27;;;;;;;5.63;2.28;;;;;;;17.14;74.87;97746.81;5086068;28;20035;-75
2021/06/30 04:08:55;;;;;;;5.78;1.95;;;;;;;17.16;74.86;97743.69;5076561;28;20496;-75
2021/06/30 04:11:21;;;;;;;2.58;1.98;;;;;;;17.16;74.89;97744.50;5077489;28;20016;-75
2021/06/30 04:13:46;;;;;;;4.00;2.38;;;;;;;17.20;74.95;97748.16;5082527;28;20373;-76
2021/06/30 04:16:12;;;;;;;3.95;2.00;;;;;;;17.20;74.83;97759.25;5085731;28;20023;-76
2021/06/30 04:18:38;;;;;;;4.25;2.20;;;;;;;17.25;74.56;97764.53;5085970;28;20095;-76
2021/06/30 04:21:04;;;;;;;3.28;2.00;;;;;;;17.29;74.65;97763.81;5086855;28;20031;-76
2021/06/30 04:23:29;;;;;;;3.38;1.88;;;;;;;17.30;74.72;97762.66;5085951;28;20012;-76
2021/06/30 04:25:55;;;;;;;4.00;2.58;;;;;;;17.30;74.68;97765.41;5082894;28;20016;-77
2021/06/30 04:28:20;;;;;;;2.38;1.75;;;;;;;17.27;74.55;97764.16;5079835;28;20047;-75
2021/06/30 04:30:46;;;;;;;4.93;2.70;;;;;;;17.22;74.56;97773.56;5079112;28;20012;-75
2021/06/30 04:33:11;;;;;;;3.45;2.15;;;;;;;17.22;74.91;97776.31;5076812;28;20028;-75
2021/06/30 04:35:37;;;;;;;2.83;2.45;;;;;;;17.23;75.04;97775.16;5082297;28;20474;-75
2021/06/30 04:38:04;;;;;;;7.70;2.33;;;;;;;17.23;75.09;97775.16;5084463;28;20017;-75
2021/06/30 04:40:29;;;;;;;2.90;1.98;;;;;;;17.25;74.99;97772.00;5085420;28;20384;-76
2021/06/30 04:42:56;;;;;;;5.53;2.70;;;;;;;17.24;74.86;97770.41;5082543;28;20020;-75
2021/06/30 04:45:22;;;;;;;4.63;2.50;;;;;;;17.31;74.38;97772.56;5087583;28;20024;-75
2021/06/30 04:47:47;;;;;;;4.15;2.35;;;;;;;17.33;74.76;97773.81;5089098;28;20032;-76
2021/06/30 04:50:14;;;;;;;3.35;2.28;;;;;;;17.33;74.57;97775.75;5079093;28;20341;-75
2021/06/30 04:52:40;;;;;;;3.35;2.40;;;;;;;17.35;74.67;97790.06;5076126;28;20467;-75
2021/06/30 04:55:06;;;;;;;4.47;2.50;;;;;;;17.37;74.86;97782.19;5080817;28;20032;-76
2021/06/30 04:57:32;;;;;;;3.50;2.17;;;;;;;17.44;74.74;97779.59;5094106;28;20034;-75
2021/06/30 04:59:57;;;;;;;5.35;2.95;;;;;;;17.49;74.67;97790.44;5102718;28;20012;-74
2021/06/30 05:02:23;;;;;;;5.00;2.40;;;;;;;17.52;74.79;97800.81;5100671;28;20039;-75
2021/06/30 05:04:48;;;;;;;3.90;2.47;;;;;;;17.52;74.42;97805.56;5102439;28;20196;-74
2021/06/30 05:07:13;;;;;;;5.65;2.20;;;;;;;17.55;75.18;97808.41;5102298;28;20024;-75
2021/06/30 05:09:38;;;;;;;8.35;3.10;;;;;;;17.59;74.86;97811.25;5100823;28;20044;-74
2021/06/30 05:12:04;;;;;;;4.88;2.03;;;;;;;17.65;74.37;97814.56;5100801;28;20050;-76
2021/06/30 05:14:30;;;;;;;4.13;2.80;;;;;;;17.68;74.55;97816.63;5102089;28;20371;-75
2021/06/30 05:16:56;;;;;;;5.32;2.90;;;;;;;17.70;74.70;97812.31;5102544;28;20020;-75
2021/06/30 05:19:21;;;;;;;3.53;2.65;;;;;;;17.71;74.67;97805.59;5100897;28;20045;-76
2021/06/30 05:21:47;;;;;;;4.40;2.63;;;;;;;17.75;74.23;97816.00;5102451;28;20487;-75
2021/06/30 05:24:12;;;;;;;5.05;2.80;;;;;;;17.76;74.96;97817.59;5101932;28;20488;-76
2021/06/30 05:26:37;;;;;;;3.28;2.30;;;;;;;17.78;74.32;97824.38;5100935;28;20042;-75
2021/06/30 05:29:03;;;;;;;5.60;2.35;;;;;;;17.79;74.51;97827.97;5106473;28;20107;-75
2021/06/30 05:31:28;;;;;;;5.35;2.28;;;;;;;17.79;74.62;97827.97;5113220;28;20153;-75
2021/06/30 05:33:54;;;;;;;3.38;2.33;;;;;;;17.81;74.64;97826.44;5113465;28;20370;-75
2021/06/30 05:36:19;;;;;;;5.25;2.25;;;;;;;17.84;74.87;97833.25;5113237;28;20026;-76
2021/06/30 05:38:44;;;;;;;4.85;2.08;;;;;;;17.86;74.55;97837.25;5113032;28;20437;-74
2021/06/30 05:41:11;;;;;;;6.00;2.60;;;;;;;17.89;74.13;97841.28;5113024;28;20024;-75
2021/06/30 05:43:37;;;;;;;3.75;2.58;;;;;;;17.95;74.38;97839.03;5113220;28;20031;-75
2021/06/30 05:46:03;;;;;;;2.90;2.20;;;;;;;18.00;74.68;97847.13;5112831;28;20031;-75
2021/06/30 05:48:29;;;;;;;5.07;2.42;;;;;;;18.06;74.59;97847.63;5112742;28;20027;-75
2021/06/30 05:50:54;;;;;;;6.53;3.08;;;;;;;18.12;74.53;97852.56;5112735;28;20042;-76
2021/06/30 05:53:20;;;;;;;4.57;2.50;;;;;;;18.20;74.38;97842.41;5112852;28;20471;-75
2021/06/30 05:55:45;;;;;;;3.25;2.33;;;;;;;18.26;74.17;97842.94;5112811;28;20038;-74
2021/06/30 05:58:10;;;;;;;5.10;2.33;;;;;;;18.34;73.92;97855.00;5112912;28;20098;-75
2021/06/30 06:00:36;;;;;;;3.47;2.70;;;;;;;18.36;74.01;97852.66;5112862;28;20059;-74
2021/06/30 06:03:01;;;;;;;6.50;2.65;;;;;;;18.40;73.98;97853.53;5112681;28;20157;-74
2021/06/30 06:05:26;;;;;;;5.97;2.80;;;;;;;18.47;74.00;97861.22;5112717;28;20024;-75
2021/06/30 06:07:52;;;;;;;6.07;2.90;;;;;;;18.46;73.81;97854.84;5112741;28;20623;-75
2021/06/30 06:10:17;;;;;;;7.30;2.80;;;;;;;18.50;73.47;97863.28;5094400;28;20081;-76
2021/06/30 06:12:42;;;;;;;3.60;2.60;;;;;;;18.55;73.67;97860.19;5115883;28;20027;-74
2021/06/30 06:15:11;;;;;;;5.78;2.72;;;;;;;18.61;73.84;97858.75;5116788;28;20023;-74
2021/06/30 06:17:37;;;;;;;3.78;2.30;;;;;;;18.67;73.45;97867.59;5116788;28;20112;-74
2021/06/30 06:20:05;;;;;;;4.07;2.90;;;;;;;18.71;72.92;97872.06;5116554;28;20491;-75
2021/06/30 06:22:31;;;;;;;5.15;2.90;;;;;;;18.79;72.88;97864.66;5117012;28;20027;-75
2021/06/30 06:24:56;;;;;;;3.78;2.75;;;;;;;18.93;73.12;97871.69;5117025;28;20027;-75
2021/06/30 06:27:22;;;;;;;6.32;2.95;;;;;;;19.01;72.95;97873.47;5116823;28;20035;-76
2021/06/30 06:29:50;;;;;;;6.10;3.05;;;;;;;19.22;72.71;97872.25;5116909;28;20085;-75
2021/06/30 06:32:15;;;;;;;5.43;2.95;;;;;;;19.37;72.42;97885.25;5116580;28;20033;-75
2021/06/30 06:34:40;;;;;;;4.13;2.80;;;;;;;19.48;72.22;97891.84;5116371;28;20395;-74
2021/06/30 06:37:11;;;;;;;4.15;2.58;;;;;;;19.52;71.85;97883.53;5116286;28;20024;-76
2021/06/30 06:39:36;;;;;;;4.25;2.85;;;;;;;19.52;71.20;97882.75;5116469;28;20012;-76
2021/06/30 06:42:03;;;;;;;6.43;2.85;;;;;;;19.46;70.86;97874.72;5116292;28;20020;-75
2021/06/30 06:44:28;;;;;;;3.83;2.63;;;;;;;19.46;70.56;97882.22;5116396;28;20042;-75
2021/06/30 06:46:53;;;;;;;5.93;3.10;;;;;;;19.45;70.59;97877.84;5116259;28;20459;-74
2021/06/30 06:49:19;;;;;;;5.10;2.83;;;;;;;19.43;70.50;97869.88;5116153;28;20068;-75
2021/06/30 06:51:44;;;;;;;2.67;2.35;;;;;;;19.47;70.52;97867.16;5115907;28;20072;-74
2021/06/30 06:54:10;;;;;;;3.05;2.67;;;;;;;19.48;70.27;97868.75;5115957;28;20046;-76
2021/06/30 06:56:36;;;;;;;4.80;2.85;;;;;;;19.51;69.97;97872.78;5116040;28;20148;-76
2021/06/30 06:59:02;;;;;;;5.65;2.70;;;;;;;19.55;70.06;97874.44;5116007;28;20039;-76
2021/06/30 07:01:27;;;;;;;6.15;2.92;;;;;;;19.63;70.02;97869.81;5115837;28;20032;-74
2021/06/30 07:03:53;;;;;;;3.70;2.92;;;;;;;19.68;70.11;97869.50;5115931;28;20028;-75
2021/06/30 07:06:19;;;;;;;5.32;2.35;;;;;;;19.78;69.94;97863.31;5115915;28;20101;-75
2021/06/30 07:08:44;;;;;;;5.53;3.20;;;;;;;19.82;69.85;97866.16;5115582;28;20544;-74
2021/06/30 07:11:10;;;;;;;6.00;3.60;;;;;;;19.87;69.78;97865.03;5115773;28;20159;-74
2021/06/30 07:13:36;;;;;;;6.82;3.10;;;;;;;19.96;69.52;97859.25;5101541;28;20427;-72
2021/06/30 07:16:04;;;;;;;3.28;2.78;;;;;;;20.04;69.31;97853.41;5104935;28;20031;-72
2021/06/30 07:18:30;;;;;;;6.40;3.17;;;;;;;20.14;69.38;97860.34;5090709;28;20106;-72
2021/06/30 07:20:55;;;;;;;4.22;3.17;;;;;;;20.28;69.33;97864.47;5092898;28;20511;-73
2021/06/30 07:23:21;;;;;;;4.50;2.70;;;;;;;20.35;68.82;97867.38;5101280;28;20036;-75
2021/06/30 07:25:46;;;;;;;5.07;2.90;;;;;;;20.35;68.08;97859.84;5111331;28;20106;-74
2021/06/30 07:28:14;;;;;;;4.15;3.05;;;;;;;20.36;68.05;97860.63;5101720;28;20024;-76
2021/06/30 07:30:40;;;;;;;3.90;2.80;;;;;;;20.41;67.96;97846.38;5100641;28;20500;-73
2021/06/30 07:33:05;;;;;;;4.90;2.60;;;;;;;20.47;67.77;97853.22;5105366;28;20100;-74
2021/06/30 07:35:32;;;;;;;4.30;2.63;;;;;;;20.51;67.33;97851.28;5097833;28;20036;-73
2021/06/30 07:37:57;;;;;;;5.07;3.20;;;;;;;20.52;66.95;97852.91;5090754;28;20376;-74
2021/06/30 07:40:22;;;;;;;4.20;2.70;;;;;;;20.57;66.94;97854.53;5112588;28;20038;-74
2021/06/30 07:42:48;;;;;;;5.05;2.72;;;;;;;20.58;66.27;97850.56;5102454;28;20088;-71
2021/06/30 07:45:13;;;;;;;4.95;3.45;;;;;;;20.60;66.19;97852.97;5104046;28;20024;-75
2021/06/30 07:47:39;;;;;;;4.95;2.90;;;;;;;20.66;66.70;97857.03;5110470;28;20531;-74
2021/06/30 07:50:06;;;;;;;6.43;3.20;;;;;;;20.76;65.54;97850.78;5105272;28;20035;-74
2021/06/30 07:52:31;;;;;;;4.95;2.92;;;;;;;20.84;65.46;97851.69;5095801;28;20068;-73
2021/06/30 07:54:57;;;;;;;7.05;3.80;;;;;;;20.90;65.23;97860.53;5078544;28;20052;-73
2021/06/30 07:57:22;;;;;;;4.22;3.20;;;;;;;21.00;65.50;97859.84;5098019;28;20036;-76
2021/06/30 07:59:47;;;;;;;5.75;2.92;;;;;;;21.21;65.13;97858.50;5105660;28;20055;-76
2021/06/30 08:02:13;;;;;;;3.75;3.10;;;;;;;21.38;64.23;97852.31;5096727;28;20046;-79
2021/06/30 08:04:38;;;;;;;5.53;3.08;;;;;;;21.39;63.43;97867.84;5098045;28;20030;-77
2021/06/30 08:07:03;;;;;;;4.32;3.30;;;;;;;21.40;63.48;97863.06;5095905;28;20062;-76
2021/06/30 08:09:31;;;;;;;5.07;3.13;;;;;;;21.53;63.67;97863.56;5098927;28;20055;-76
2021/06/30 08:11:58;;;;;;;5.00;3.70;;;;;;;21.78;63.68;97866.63;5094271;28;20024;-82
2021/06/30 08:14:24;;;;;;;6.93;3.45;;;;;;;22.00;63.76;97861.22;5081694;28;20104;-84
2021/06/30 08:16:49;;;;;;;5.43;3.33;;;;;;;22.13;63.37;97865.28;5080590;28;20096;-78
2021/06/30 08:19:15;;;;;;;6.68;3.85;;;;;;;22.21;63.15;97879.28;5100223;28;20020;-78
2021/06/30 08:21:40;;;;;;;4.50;3.53;;;;;;;22.23;62.36;97879.72;5100704;28;20126;-79
2021/06/30 08:24:05;;;;;;;4.18;3.35;;;;;;;22.33;61.90;97881.78;5097076;28;20119;-77
2021/06/30 08:26:31;;;;;;;4.93;3.20;;;;;;;22.42;60.92;97878.63;5095334;28;20036;-75
2021/06/30 08:28:57;;;;;;;7.22;3.63;;;;;;;22.42;61.21;97873.81;5098404;28;20045;-74
2021/06/30 08:31:22;;;;;;;7.43;3.80;;;;;;;22.53;61.46;97871.16;5101717;28;20036;-76
2021/06/30 08:33:48;;;;;;;4.95;4.25;;;;;;;22.71;61.05;97878.81;5107053;28;20499;-74
2021/06/30 08:36:13;;;;;;;5.00;3.90;;;;;;;22.93;60.92;97870.53;5106984;28;20036;-77
2021/06/30 08:38:38;;;;;;;6.43;4.60;;;;;;;22.99;61.59;97869.75;5104890;28;20026;-74
2021/06/30 08:41:04;;;;;;;6.28;3.95;;;;;;;23.10;60.78;97883.75;5091680;28;20059;-76
2021/06/30 08:43:29;;;;;;;5.03;3.88;;;;;;;23.16;60.49;97875.78;5095246;28;20015;-76
2021/06/30 08:45:55;;;;;;;5.20;3.90;;;;;;;23.18;59.83;97881.78;5099736;28;20114;-73
2021/06/30 08:48:20;;;;;;;6.80;3.83;;;;;;;23.12;60.06;97877.78;5098144;28;20058;-75
2021/06/30 08:50:47;;;;;;;6.45;4.13;;;;;;;23.05;60.30;97870.16;5091143;28;20043;-75
2021/06/30 08:53:14;;;;;;;4.38;3.20;;;;;;;23.02;60.04;97876.56;5107022;28;20106;-77
2021/06/30 08:55:45;;;;;;;11.70;4.30;;;;;;;22.99;60.33;97877.34;5107054;28;20029;-76
2021/06/30 08:58:14;;;;;;;7.10;3.80;;;;;;;22.96;60.14;97875.31;5096315;28;20377;-76
2021/06/30 09:00:44;;;;;;;10.15;4.60;;;;;;;22.96;60.11;97875.31;5098760;28;20062;-75
2021/06/30 09:03:18;;;;;;;3.10;2.78;;;;;;;22.96;59.65;97869.75;5101610;28;20028;-79
2021/06/30 09:08:42;;;;;;;7.70;4.30;;;;;;;22.99;59.70;97878.13;5093954;28;20032;-72
2021/06/30 09:11:20;;;;;;;5.70;4.10;;;;;;;23.15;59.49;97872.19;5082006;28;21306;-75
2021/06/30 09:13:50;;;;;;;6.05;3.80;;;;;;;23.23;58.43;97875.81;5096485;28;20032;-74
2021/06/30 09:16:16;;;;;;;5.90;3.70;;;;;;;23.26;58.95;97877.03;5099691;28;20044;-76
2021/06/30 09:18:42;;;;;;;6.25;3.70;;;;;;;23.36;59.11;97876.28;5103162;28;20104;-76
2021/06/30 09:21:31;;;;;;;3.85;3.45;;;;;;;23.34;57.90;97885.03;5073229;28;20051;-76
2021/06/30 09:24:00;;;;;;;6.90;4.75;;;;;;;23.23;57.87;97889.00;5091804;28;20478;-77
2021/06/30 09:26:28;;;;;;;3.58;2.63;;;;;;;23.11;57.85;97879.75;5074041;28;20030;-77
2021/06/30 09:29:07;;;;;;;3.60;2.85;;;;;;;22.97;58.05;97888.91;5091284;28;20054;-76
2021/06/30 09:31:35;;;;;;;6.75;3.42;;;;;;;22.95;57.87;97884.91;5095536;28;20036;-76
2021/06/30 09:34:01;;;;;;;5.53;3.22;;;;;;;23.03;57.77;97892.09;5112877;28;20020;-76
2021/06/30 09:36:33;;;;;;;5.45;3.20;;;;;;;23.16;58.15;97882.16;5102067;28;20123;-77
2021/06/30 09:39:12;;;;;;;4.60;2.95;;;;;;;23.47;58.54;97893.84;5097769;28;20061;-75
2021/06/30 09:41:39;;;;;;;3.13;2.80;;;;;;;23.71;57.92;97887.88;5092340;28;20042;-76
2021/06/30 09:44:13;;;;;;;4.20;3.33;;;;;;;23.67;56.57;97893.50;5090383;28;20064;-76
2021/06/30 09:46:41;;;;;;;4.68;2.80;;;;;;;23.61;56.21;97889.50;5096560;28;20024;-74
2021/06/30 09:49:12;;;;;;;4.88;3.22;;;;;;;23.71;57.46;97885.91;5091563;28;20061;-77
2021/06/30 09:51:39;;;;;;;5.38;3.40;;;;;;;23.92;57.45;97882.31;5093079;28;20021;-75
2021/06/30 09:54:07;;;;;;;3.45;2.80;;;;;;;24.12;56.87;97881.91;5094165;28;20024;-83
2021/06/30 09:56:34;;;;;;;5.45;2.95;;;;;;;24.29;56.61;97882.31;5089842;28;20482;-75
2021/06/30 09:59:23;;;;;;;4.75;3.58;;;;;;;24.33;55.85;97883.09;5092694;28;20020;-75
2021/06/30 10:01:57;;;;;;;5.30;3.10;;;;;;;24.25;55.46;97884.31;5106307;28;20036;-71
2021/06/30 10:04:32;;;;;;;4.63;3.63;;;;;;;24.10;54.94;97891.94;5108246;28;20447;-75
2021/06/30 10:07:11;;;;;;;6.22;3.35;;;;;;;24.07;55.69;97888.72;5109936;28;20050;-75
2021/06/30 10:09:38;;;;;;;6.13;3.40;;;;;;;24.11;54.64;97890.72;5109066;28;20039;-74
2021/06/30 10:12:05;;;;;;;4.60;2.80;;;;;;;24.20;54.86;97891.91;5109860;28;20038;-74
2021/06/30 10:14:31;;;;;;;3.50;2.92;;;;;;;24.25;54.22;97885.09;5109795;28;20107;-76
2021/06/30 10:16:58;;;;;;;2.85;2.20;;;;;;;24.40;53.98;97893.50;5109482;28;20476;-75
2021/06/30 10:19:23;;;;;;;3.80;2.83;;;;;;;24.36;53.73;97888.69;5110405;28;20024;-73
2021/06/30 10:21:49;;;;;;;3.55;2.97;;;;;;;24.31;53.71;97894.69;5110484;28;20399;-75
2021/06/30 10:24:15;;;;;;;4.63;2.95;;;;;;;24.33;53.74;97891.50;5111800;28;20068;-74
2021/06/30 10:26:41;;;;;;;5.25;3.10;;;;;;;24.32;53.38;97881.50;5110780;28;20451;-77
2021/06/30 10:29:07;;;;;;;4.95;2.58;;;;;;;24.38;54.32;97886.28;5111606;28;20028;-76
2021/06/30 10:31:36;;;;;;;4.70;3.10;;;;;;;24.45;54.32;97877.06;5111230;28;20028;-77
2021/06/30 10:34:11;;;;;;;4.40;2.67;;;;;;;24.35;53.06;97869.50;5111882;28;20032;-76
2021/06/30 10:36:56;;;;;;;3.70;2.53;;;;;;;24.43;53.33;97884.28;5107207;28;20023;-75
2021/06/30 10:39:37;;;;;;;2.95;2.60;;;;;;;24.43;53.51;97881.47;5105572;28;20028;-74
2021/06/30 10:42:37;;;;;;;4.38;3.10;;;;;;;24.32;53.40;97882.28;5096480;28;20020;-75
2021/06/30 10:45:14;;;;;;;3.25;2.17;;;;;;;24.46;52.89;97877.88;5091091;28;20044;-75
2021/06/30 10:47:50;;;;;;;4.10;2.65;;;;;;;24.66;53.36;97873.38;5090733;28;20032;-76
2021/06/30 10:50:19;;;;;;;4.53;2.67;;;;;;;24.88;52.89;97887.38;5091173;28;20161;-76
2021/06/30 10:52:55;;;;;;;3.38;2.55;;;;;;;24.84;52.05;97871.78;5090987;28;20051;-75
2021/06/30 10:55:36;;;;;;;3.67;2.88;;;;;;;24.76;51.98;97876.59;5091291;28;20031;-76
2021/06/30 10:58:14;;;;;;;2.95;2.75;;;;;;;24.84;52.74;97875.38;5093039;28;20059;-76
2021/06/30 11:00:54;;;;;;;4.03;2.83;;;;;;;24.94;51.65;97873.72;5094590;28;20024;-75
2021/06/30 11:03:27;;;;;;;3.17;2.78;;;;;;;24.86;50.73;97884.19;5094898;28;20088;-74
2021/06/30 11:06:14;;;;;;;5.78;3.22;;;;;;;24.81;51.06;97878.97;5094757;28;20047;-74
2021/06/30 11:09:35;;;;;;;5.05;3.40;;;;;;;24.71;51.80;97883.41;5095738;28;20051;-75
2021/06/30 11:12:01;;;;;;;4.60;2.95;;;;;;;24.61;51.69;97893.44;5105110;28;20024;-77
2021/06/30 11:14:40;;;;;;;3.05;2.70;;;;;;;24.66;51.60;97889.41;5105832;28;20081;-85
2021/06/30 11:17:05;;;;;;;4.13;2.90;;;;;;;24.77;51.77;97887.41;5103591;28;20076;-77
2021/06/30 11:19:30;;;;;;;2.75;2.15;;;;;;;25.02;51.53;97885.72;5101667;28;20060;-80
2021/06/30 11:21:58;;;;;;;2.78;2.40;;;;;;;25.24;51.33;97887.19;5104331;28;20275;-78
2021/06/30 11:24:43;;;;;;;4.40;2.90;;;;;;;25.45;50.69;97893.13;5100489;28;20039;-77
2021/06/30 11:27:15;;;;;;;4.32;2.78;;;;;;;25.48;50.21;97897.91;5093694;28;20043;-78
2021/06/30 11:29:44;;;;;;;3.63;2.35;;;;;;;25.50;50.13;97890.66;5111875;28;20096;-77
2021/06/30 11:32:35;;;;;;;3.25;2.78;;;;;;;25.40;49.23;97899.94;5088457;28;20028;-79
2021/06/30 11:35:23;;;;;;;6.45;3.20;;;;;;;25.25;50.09;97899.25;5086511;28;20487;-76
2021/06/30 11:38:04;;;;;;;;;;;;;;;25.06;50.65;97889.31;5094752;28;20020;-75
2021/06/30 11:40:39;;;;;;;5.18;2.88;;;;;;;25.04;50.56;97898.13;5094409;28;20018;-76